Time;durP1;ratioP1;P1;durP2;ratioP2;P2;SDS_P1;SDS_P2;PMS_P1;PMS_P2;Temp;Humidity;BMP_temperature;BMP_pressure;BME280_temperature;BME280_humidity;BME280_pressure;Samples;Min_cycle;Max_cycle;Signal;HPM_P1;HPM_P2
2022/05/12 00:02:24;;;;;;;17.25;11.05;;;17.60;78.80;;;;;;4885326;28;95797;-63
2022/05/12 00:04:55;;;;;;;16.98;10.90;;;17.60;78.70;;;;;;4889196;28;95761;-63
2022/05/12 00:07:25;;;;;;;19.97;11.43;;;17.60;78.60;;;;;;4891660;28;95696;-63
2022/05/12 00:09:56;;;;;;;18.17;10.43;;;17.70;78.60;;;;;;4891774;28;95894;-63
2022/05/12 00:12:32;;;;;;;15.85;10.68;;;17.60;78.50;;;;;;4891776;28;95635;-62
2022/05/12 00:15:07;;;;;;;15.88;10.60;;;17.60;78.60;;;;;;4883466;28;95631;-64
2022/05/12 00:17:40;;;;;;;16.00;10.82;;;17.60;78.60;;;;;;4880140;28;98015;-64
2022/05/12 00:20:13;;;;;;;18.42;9.95;;;17.60;78.70;;;;;;4893934;28;96399;-64
2022/05/12 00:22:46;;;;;;;17.05;10.77;;;17.60;78.80;;;;;;4894334;28;95783;-64
2022/05/12 00:25:23;;;;;;;12.75;9.15;;;17.60;78.70;;;;;;4894043;28;95732;-64
2022/05/12 00:27:55;;;;;;;17.27;10.63;;;17.60;78.80;;;;;;4894886;28;95357;-63
2022/05/12 00:30:25;;;;;;;17.02;10.10;;;17.60;78.90;;;;;;4896257;28;98887;-63
2022/05/12 00:32:55;;;;;;;14.35;9.25;;;17.60;78.90;;;;;;4891388;28;95747;-63
2022/05/12 00:35:25;;;;;;;13.88;10.15;;;17.60;78.80;;;;;;4892677;28;96059;-63
2022/05/12 00:37:56;;;;;;;;;;;17.60;78.80;;;;;;4891609;28;95817;-63
2022/05/12 00:40:28;;;;;;;13.13;8.63;;;17.60;78.80;;;;;;4894686;28;97968;-63
2022/05/12 00:43:05;;;;;;;16.05;9.98;;;17.60;78.80;;;;;;4891656;28;95859;-63
2022/05/12 00:45:37;;;;;;;14.70;8.82;;;17.60;78.80;;;;;;4879944;28;95658;-63
2022/05/12 00:48:08;;;;;;;14.43;9.60;;;17.60;78.70;;;;;;4894114;28;95313;-63
2022/05/12 00:50:45;;;;;;;12.88;8.70;;;17.70;78.80;;;;;;4894048;28;95902;-63
2022/05/12 00:53:17;;;;;;;14.07;9.23;;;17.70;78.80;;;;;;4895081;28;95830;-63
2022/05/12 00:55:51;;;;;;;12.82;8.80;;;17.70;78.80;;;;;;4887441;28;95784;-63
2022/05/12 00:58:22;;;;;;;13.50;8.38;;;17.70;78.80;;;;;;4895552;28;95725;-63
2022/05/12 01:00:54;;;;;;;12.52;9.23;;;17.70;78.70;;;;;;4887513;28;97122;-63
2022/05/12 01:03:28;;;;;;;12.65;7.85;;;17.70;78.80;;;;;;4893811;28;95643;-63
2022/05/12 01:06:01;;;;;;;12.48;7.72;;;17.80;78.80;;;;;;4892781;28;95926;-62
2022/05/12 01:08:32;;;;;;;12.32;8.25;;;17.80;78.80;;;;;;4876842;28;95784;-63
2022/05/12 01:11:16;;;;;;;12.63;8.18;;;17.80;78.70;;;;;;4894303;28;96230;-63
2022/05/12 01:13:59;;;;;;;12.65;7.68;;;17.80;78.70;;;;;;4890075;28;96001;-62
2022/05/12 01:16:37;;;;;;;10.23;8.10;;;17.80;78.60;;;;;;4876298;28;95986;-63
2022/05/12 01:19:12;;;;;;;10.50;7.45;;;17.90;78.60;;;;;;4894091;28;95966;-62
2022/05/12 01:21:44;;;;;;;10.60;7.70;;;17.90;78.60;;;;;;4891785;28;95893;-62
2022/05/12 01:24:18;;;;;;;13.40;8.25;;;17.90;78.60;;;;;;4892165;28;95484;-62
2022/05/12 01:26:49;;;;;;;10.30;7.53;;;17.90;78.60;;;;;;4894105;28;97988;-62
2022/05/12 01:29:21;;;;;;;9.15;7.28;;;17.90;78.50;;;;;;4892765;28;95468;-62
2022/05/12 01:31:52;;;;;;;;;;;18.00;78.60;;;;;;4888479;28;97648;-61
2022/05/12 01:34:23;;;;;;;9.60;7.40;;;18.00;78.50;;;;;;4894987;28;95578;-61
2022/05/12 01:36:54;;;;;;;;;;;18.00;78.30;;;;;;4893930;28;96068;-61
2022/05/12 01:39:25;;;;;;;9.05;6.35;;;18.00;78.40;;;;;;4893347;28;95426;-61
2022/05/12 01:41:55;;;;;;;7.65;6.47;;;18.10;78.40;;;;;;4892860;28;95906;-61
2022/05/12 01:44:25;;;;;;;9.73;6.90;;;18.10;78.30;;;;;;4892076;28;95333;-61
2022/05/12 01:46:56;;;;;;;9.70;6.72;;;18.10;78.20;;;;;;4888534;28;95395;-61
2022/05/12 01:49:26;;;;;;;;;;;18.20;78.20;;;;;;4895365;28;95761;-61
2022/05/12 01:52:00;;;;;;;12.20;7.57;;;18.20;78.10;;;;;;4887009;28;96010;-61
2022/05/12 01:54:31;;;;;;;9.38;6.20;;;18.20;78.00;;;;;;4892173;28;95327;-61
2022/05/12 01:57:03;;;;;;;8.75;6.28;;;18.20;78.00;;;;;;4894160;28;97465;-60
2022/05/12 01:59:34;;;;;;;;;;;18.30;78.60;;;;;;4893230;28;95756;-60
2022/05/12 02:02:05;;;;;;;8.35;5.90;;;18.30;77.90;;;;;;4888695;28;96941;-60
2022/05/12 02:04:36;;;;;;;7.00;5.65;;;18.30;77.80;;;;;;4896917;28;96394;-61
2022/05/12 02:07:07;;;;;;;;;;;18.30;77.90;;;;;;4894242;28;98099;-60
2022/05/12 02:09:39;;;;;;;8.32;5.40;;;18.30;77.70;;;;;;4894044;28;95373;-61
2022/05/12 02:12:10;;;;;;;8.98;5.93;;;18.40;77.70;;;;;;4892813;28;95913;-61
2022/05/12 02:14:42;;;;;;;6.70;5.28;;;18.40;77.80;;;;;;4886379;28;95666;-61
2022/05/12 02:17:13;;;;;;;6.88;5.38;;;18.40;77.70;;;;;;4879011;28;96549;-61
2022/05/12 02:19:44;;;;;;;8.00;5.43;;;18.40;77.60;;;;;;4893426;28;95557;-60
2022/05/12 02:22:17;;;;;;;8.02;5.72;;;18.50;77.50;;;;;;4892824;28;96494;-60
2022/05/12 02:24:48;;;;;;;7.85;5.10;;;18.50;77.50;;;;;;4890291;28;95755;-60
2022/05/12 02:27:20;;;;;;;;;;;18.50;77.60;;;;;;4893207;28;95243;-60
2022/05/12 02:29:50;;;;;;;5.90;4.68;;;18.50;77.50;;;;;;4893899;28;95735;-60
2022/05/12 02:32:20;;;;;;;7.30;5.32;;;18.50;77.40;;;;;;4885968;28;96752;-60
2022/05/12 02:34:50;;;;;;;6.90;4.95;;;18.60;77.50;;;;;;4901582;28;95376;-60
2022/05/12 02:37:24;;;;;;;6.45;5.07;;;18.60;77.40;;;;;;4890239;28;95721;-60
2022/05/12 02:39:55;;;;;;;8.52;5.28;;;18.60;77.40;;;;;;4890111;28;95738;-60
2022/05/12 02:42:26;;;;;;;7.03;5.32;;;18.60;77.30;;;;;;4891933;28;95901;-61
2022/05/12 02:44:57;;;;;;;;;;;18.60;77.30;;;;;;4893135;28;95880;-61
2022/05/12 02:47:27;;;;;;;5.95;4.47;;;18.70;77.30;;;;;;4888624;28;96807;-61
2022/05/12 02:49:59;;;;;;;5.85;5.00;;;18.70;77.30;;;;;;4892755;28;97748;-61
2022/05/12 02:52:30;;;;;;;6.45;4.38;;;18.70;77.30;;;;;;4893813;28;96475;-61
2022/05/12 02:55:00;;;;;;;5.63;5.00;;;18.70;77.20;;;;;;4892872;28;95792;-60
2022/05/12 02:57:32;;;;;;;7.95;4.72;;;18.70;77.20;;;;;;4893433;28;95915;-61
2022/05/12 03:00:07;;;;;;;5.93;4.30;;;18.80;77.10;;;;;;4893280;28;95781;-61
2022/05/12 03:02:37;;;;;;;7.00;4.03;;;18.80;77.10;;;;;;4891898;28;95937;-61
2022/05/12 03:05:10;;;;;;;6.70;4.85;;;18.80;77.00;;;;;;4890767;28;95524;-61
2022/05/12 03:07:43;;;;;;;4.95;3.72;;;18.80;77.10;;;;;;4891319;28;95357;-61
2022/05/12 03:10:16;;;;;;;5.47;4.30;;;18.90;77.10;;;;;;4886953;28;95643;-61
2022/05/12 03:12:48;;;;;;;5.25;3.75;;;18.90;77.10;;;;;;4887290;28;95912;-60
2022/05/12 03:15:20;;;;;;;4.95;4.07;;;18.90;77.10;;;;;;4879881;28;95839;-59
2022/05/12 03:17:51;;;;;;;4.78;4.28;;;18.90;77.00;;;;;;4884001;28;98113;-60
2022/05/12 03:20:25;;;;;;;5.05;3.55;;;18.90;77.60;;;;;;4892091;28;95742;-61
2022/05/12 03:22:56;;;;;;;5.32;3.60;;;18.90;76.90;;;;;;4874323;28;97030;-60
2022/05/12 03:25:28;;;;;;;5.03;3.65;;;18.90;76.90;;;;;;4891850;28;95893;-61
2022/05/12 03:28:00;;;;;;;6.72;3.83;;;18.90;76.90;;;;;;4892724;28;95630;-61
2022/05/12 03:30:30;;;;;;;7.32;3.13;;;18.90;76.70;;;;;;4883008;28;95951;-61
2022/05/12 03:33:00;;;;;;;6.75;3.80;;;18.90;76.90;;;;;;4891296;28;95399;-61
2022/05/12 03:35:31;;;;;;;4.20;3.78;;;19.00;76.80;;;;;;4882281;28;95797;-62
2022/05/12 03:38:03;;;;;;;4.90;3.60;;;19.00;76.80;;;;;;4889049;28;95648;-62
2022/05/12 03:40:34;;;;;;;;;;;19.00;77.50;;;;;;4893265;28;95456;-62
2022/05/12 03:43:03;;;;;;;4.45;3.13;;;19.00;76.70;;;;;;4889344;28;96353;-62
2022/05/12 03:45:34;;;;;;;4.47;3.35;;;19.00;76.70;;;;;;4886260;28;95776;-62
2022/05/12 03:48:04;;;;;;;4.03;3.08;;;19.00;76.60;;;;;;4889039;28;95842;-62
2022/05/12 03:50:36;;;;;;;4.45;3.63;;;19.00;76.70;;;;;;4889812;28;95703;-62
2022/05/12 03:53:08;;;;;;;4.15;3.03;;;19.10;76.80;;;;;;4894927;28;95944;-61
2022/05/12 03:55:39;;;;;;;5.80;3.35;;;19.10;76.80;;;;;;4895698;28;96609;-62
2022/05/12 03:58:11;;;;;;;6.18;3.10;;;19.10;76.90;;;;;;4896775;28;95282;-61
2022/05/12 04:00:43;;;;;;;5.38;3.00;;;19.00;76.90;;;;;;4891290;28;96005;-61
2022/05/12 04:03:14;;;;;;;8.57;2.80;;;19.10;77.10;;;;;;4894350;28;95927;-61
2022/05/12 04:05:45;;;;;;;4.05;3.13;;;19.10;77.00;;;;;;4893066;28;95390;-61
2022/05/12 04:08:16;;;;;;;4.20;3.53;;;19.10;76.90;;;;;;4895081;28;95361;-60
2022/05/12 04:10:49;;;;;;;;;;;19.20;77.10;;;;;;4894689;28;95756;-59
2022/05/12 04:13:21;;;;;;;3.53;2.70;;;19.10;77.00;;;;;;4895926;28;96168;-60
2022/05/12 04:15:52;;;;;;;;;;;19.10;77.00;;;;;;4880231;28;95973;-60
2022/05/12 04:18:23;;;;;;;4.77;3.00;;;19.20;77.00;;;;;;4897430;28;96004;-60
2022/05/12 04:20:54;;;;;;;;;;;19.20;77.00;;;;;;4891071;28;96030;-60
2022/05/12 04:23:25;;;;;;;4.13;2.13;;;19.20;76.80;;;;;;4895694;28;95876;-59
2022/05/12 04:26:02;;;;;;;5.97;2.97;;;19.20;76.90;;;;;;4886890;28;95961;-58
2022/05/12 04:28:33;;;;;;;3.20;2.65;;;19.30;76.90;;;;;;4894860;28;95406;-59
2022/05/12 04:31:05;;;;;;;4.47;2.58;;;19.30;76.80;;;;;;4889019;28;95944;-60
2022/05/12 04:36:24;;;;;;;3.45;2.38;;;19.30;76.80;;;;;;4889953;28;96005;-60
2022/05/12 04:38:55;;;;;;;2.60;2.40;;;19.30;76.90;;;;;;4891799;28;95301;-60
2022/05/12 04:41:25;;;;;;;2.92;2.45;;;19.30;76.70;;;;;;4874935;28;96024;-59
2022/05/12 04:43:55;;;;;;;5.37;2.43;;;19.30;76.80;;;;;;4894598;28;96215;-59
2022/05/12 04:46:27;;;;;;;5.50;2.78;;;19.30;77.00;;;;;;4878620;28;96448;-60
2022/05/12 04:48:58;;;;;;;3.03;2.10;;;19.40;76.90;;;;;;4888907;28;95707;-60
2022/05/12 04:51:29;;;;;;;3.85;2.85;;;19.40;76.90;;;;;;4892708;28;96111;-59
2022/05/12 04:54:00;;;;;;;3.70;2.38;;;19.40;76.90;;;;;;4894176;28;96034;-60
2022/05/12 04:56:31;;;;;;;;;;;19.40;76.80;;;;;;4896819;28;96063;-60
2022/05/12 04:59:03;;;;;;;4.25;2.40;;;19.40;76.90;;;;;;4897416;28;95655;-59
2022/05/12 05:01:34;;;;;;;3.15;2.47;;;19.40;76.90;;;;;;4888509;28;95780;-60
2022/05/12 05:04:06;;;;;;;4.22;1.98;;;19.40;76.90;;;;;;4895117;28;96369;-60
2022/05/12 05:06:36;;;;;;;4.93;2.15;;;19.40;76.90;;;;;;4893956;28;95857;-60
2022/05/12 05:09:07;;;;;;;3.28;1.98;;;19.40;76.90;;;;;;4893651;28;95672;-60
2022/05/12 05:11:41;;;;;;;2.95;2.30;;;19.40;76.80;;;;;;4892269;28;95804;-60
2022/05/12 05:14:13;;;;;;;2.58;2.20;;;19.50;76.80;;;;;;4891531;28;96505;-60
2022/05/12 05:16:45;;;;;;;2.67;1.88;;;19.40;76.80;;;;;;4876536;28;95758;-60
2022/05/12 05:19:18;;;;;;;4.18;2.25;;;19.50;76.80;;;;;;4882483;28;95677;-59
2022/05/12 05:21:50;;;;;;;3.42;2.17;;;19.50;76.80;;;;;;4894549;28;95646;-59
2022/05/12 05:24:22;;;;;;;2.38;1.80;;;19.50;76.80;;;;;;4891517;28;96955;-60
2022/05/12 05:26:54;;;;;;;6.38;2.30;;;19.50;76.70;;;;;;4892414;28;96140;-60
2022/05/12 05:29:25;;;;;;;2.08;1.88;;;19.50;76.70;;;;;;4874460;28;95843;-60
2022/05/12 05:31:55;;;;;;;2.20;1.88;;;19.50;76.60;;;;;;4889653;28;97242;-59
2022/05/12 05:34:30;;;;;;;3.72;2.05;;;19.50;76.60;;;;;;4893010;28;95852;-60
2022/05/12 05:37:00;;;;;;;2.67;2.03;;;19.50;76.70;;;;;;4893077;28;96138;-60
2022/05/12 05:39:32;;;;;;;3.30;2.10;;;19.50;76.70;;;;;;4893848;28;95544;-60
2022/05/12 05:42:15;;;;;;;4.63;1.92;;;19.50;76.70;;;;;;4893935;28;95326;-60
2022/05/12 05:44:45;;;;;;;4.75;2.22;;;19.50;76.60;;;;;;4892018;28;96445;-60
2022/05/12 05:47:17;;;;;;;2.03;1.85;;;19.60;76.70;;;;;;4889543;28;97783;-61
2022/05/12 05:49:49;;;;;;;1.90;1.70;;;19.50;76.60;;;;;;4894654;28;95592;-60
2022/05/12 05:55:13;;;;;;;3.80;1.80;;;19.50;76.70;;;;;;4889913;28;96488;-60
2022/05/12 05:57:44;;;;;;;2.92;2.28;;;19.60;73.80;;;;;;4892670;28;96651;-61
2022/05/12 06:00:17;;;;;;;3.28;2.03;;;19.50;76.70;;;;;;4887566;28;98726;-61
2022/05/12 06:02:47;;;;;;;2.40;1.73;;;19.50;76.70;;;;;;4891935;28;95749;-61
2022/05/12 06:05:19;;;;;;;3.35;1.88;;;19.50;76.70;;;;;;4893991;28;96096;-61
2022/05/12 06:07:54;;;;;;;2.00;1.80;;;19.50;76.70;;;;;;4893903;28;95908;-60
2022/05/12 06:10:26;;;;;;;6.95;1.98;;;19.50;76.70;;;;;;4892931;28;95707;-61
2022/05/12 06:12:58;;;;;;;2.00;1.67;;;19.50;76.80;;;;;;4893142;28;95788;-61
2022/05/12 06:15:29;;;;;;;2.83;1.70;;;19.50;76.80;;;;;;4880957;28;96676;-61
2022/05/12 06:18:00;;;;;;;;;;;19.50;76.80;;;;;;4886386;28;102722;-61
2022/05/12 06:20:31;;;;;;;2.72;1.67;;;19.50;76.80;;;;;;4893406;28;95274;-61
2022/05/12 06:23:03;;;;;;;4.13;1.70;;;19.50;76.80;;;;;;4893471;28;95625;-61
2022/05/12 06:25:35;;;;;;;2.50;1.92;;;19.50;76.80;;;;;;4892732;28;96473;-59
2022/05/12 06:28:07;;;;;;;2.17;2.00;;;19.50;76.80;;;;;;4892604;28;96034;-59
2022/05/12 06:30:37;;;;;;;;;;;19.50;76.80;;;;;;4888670;28;95373;-59
2022/05/12 06:33:07;;;;;;;2.05;1.85;;;19.50;76.90;;;;;;4885181;28;95648;-59
2022/05/12 06:35:37;;;;;;;2.78;2.10;;;19.50;76.90;;;;;;4889032;28;96023;-59
2022/05/12 06:38:10;;;;;;;2.15;1.80;;;19.50;76.80;;;;;;4882379;28;95848;-59
2022/05/12 06:40:41;;;;;;;1.67;1.50;;;19.50;76.80;;;;;;4880831;28;95738;-58
2022/05/12 06:43:14;;;;;;;1.73;1.48;;;19.50;76.80;;;;;;4886950;28;95896;-59
2022/05/12 06:45:44;;;;;;;;;;;19.50;76.90;;;;;;4886752;28;96042;-59
2022/05/12 06:48:14;;;;;;;2.47;1.50;;;19.50;77.00;;;;;;4895084;28;98025;-59
2022/05/12 06:50:47;;;;;;;2.35;1.83;;;19.50;77.00;;;;;;4891892;28;98130;-60
2022/05/12 06:53:18;;;;;;;2.50;1.40;;;19.50;76.90;;;;;;4892974;28;95710;-61
2022/05/12 06:55:50;;;;;;;3.23;2.00;;;19.40;76.90;;;;;;4891520;28;96797;-61
2022/05/12 06:58:21;;;;;;;2.58;1.80;;;19.50;77.00;;;;;;4890040;28;95890;-61
2022/05/12 07:00:51;;;;;;;1.70;1.60;;;19.50;77.00;;;;;;4880980;28;95976;-61
2022/05/12 07:03:23;;;;;;;1.77;1.60;;;19.50;77.00;;;;;;4884898;28;95490;-61
2022/05/12 07:05:53;;;;;;;;;;;19.40;76.90;;;;;;4877546;28;96072;-61
2022/05/12 07:08:24;;;;;;;2.63;1.50;;;19.40;77.00;;;;;;4886770;28;95901;-61
2022/05/12 07:10:57;;;;;;;2.13;1.50;;;19.40;77.10;;;;;;4874776;28;97048;-61
2022/05/12 07:13:30;;;;;;;2.30;1.42;;;19.40;77.10;;;;;;4874565;28;95698;-61
2022/05/12 07:16:03;;;;;;;1.60;1.42;;;19.40;77.80;;;;;;4871985;28;95932;-61
2022/05/12 07:18:35;;;;;;;1.67;1.58;;;19.40;77.10;;;;;;4881615;28;95743;-60
2022/05/12 07:26:54;;;;;;;2.15;1.15;;;19.40;77.10;;;;;;4882358;28;96127;-61
2022/05/12 07:29:27;;;;;;;;;;;19.40;77.10;;;;;;4882705;28;95629;-61
2022/05/12 07:31:57;;;;;;;1.63;1.45;;;19.40;77.30;;;;;;4884603;28;96646;-60
2022/05/12 07:34:28;;;;;;;4.22;1.92;;;19.40;77.30;;;;;;4888833;28;95874;-61
2022/05/12 07:37:00;;;;;;;1.90;1.60;;;19.30;77.30;;;;;;4891372;28;96024;-61
2022/05/12 07:39:31;;;;;;;;;;;19.30;77.30;;;;;;4891619;28;96181;-61
2022/05/12 07:42:03;;;;;;;2.20;1.42;;;19.30;77.40;;;;;;4888760;28;95497;-61
2022/05/12 07:44:34;;;;;;;2.80;1.88;;;19.30;77.40;;;;;;4892294;28;95643;-60
2022/05/12 07:47:13;;;;;;;1.67;1.40;;;19.30;77.50;;;;;;4886086;28;98238;-60
2022/05/12 07:49:43;;;;;;;2.30;1.60;;;19.30;77.40;;;;;;4890969;28;95959;-60
2022/05/12 07:52:15;;;;;;;;;;;19.20;78.10;;;;;;4891623;28;95752;-60
2022/05/12 07:54:46;;;;;;;2.33;1.75;;;19.20;77.50;;;;;;4892152;28;95822;-61
2022/05/12 07:57:21;;;;;;;2.78;1.80;;;19.20;77.60;;;;;;4893117;28;95976;-61
2022/05/12 07:59:52;;;;;;;2.95;1.98;;;19.20;77.70;;;;;;4889497;28;95871;-60
2022/05/12 08:02:26;;;;;;;2.25;1.60;;;19.20;77.80;;;;;;4878901;28;95780;-60
2022/05/12 08:04:58;;;;;;;2.92;1.85;;;19.20;77.70;;;;;;4886353;28;95782;-61
2022/05/12 08:07:29;;;;;;;;;;;19.20;77.70;;;;;;4886971;28;96848;-60
2022/05/12 08:10:01;;;;;;;3.10;2.05;;;19.20;77.70;;;;;;4888734;28;96088;-59
2022/05/12 08:12:34;;;;;;;4.30;1.60;;;19.20;77.70;;;;;;4894260;28;95538;-60
2022/05/12 08:15:06;;;;;;;5.57;2.42;;;19.20;77.80;;;;;;4882048;28;95747;-59
2022/05/12 08:17:39;;;;;;;3.25;2.28;;;19.10;77.90;;;;;;4882962;28;95884;-59
2022/05/12 08:20:12;;;;;;;3.30;2.20;;;19.20;78.00;;;;;;4889733;28;97902;-59
2022/05/12 08:22:43;;;;;;;1.88;1.77;;;19.10;77.90;;;;;;4889578;28;96686;-59
2022/05/12 08:25:16;;;;;;;3.20;2.20;;;19.10;77.90;;;;;;4896114;28;95267;-59
2022/05/12 08:27:47;;;;;;;4.47;2.55;;;19.10;78.00;;;;;;4890264;28;96804;-59
2022/05/12 08:30:18;;;;;;;5.80;3.05;;;19.10;78.10;;;;;;4888988;28;95732;-59
2022/05/12 08:32:49;;;;;;;2.97;2.67;;;19.10;78.20;;;;;;4888680;28;95834;-59
2022/05/12 08:35:21;;;;;;;5.63;3.45;;;19.00;78.10;;;;;;4885924;28;95408;-59
2022/05/12 08:37:53;;;;;;;4.72;3.20;;;19.00;78.30;;;;;;4883749;28;95996;-59
2022/05/12 08:40:53;;;;;;;4.72;3.28;;;19.00;78.20;;;;;;4890547;28;96678;-59
2022/05/12 08:43:29;;;;;;;4.80;3.30;;;19.00;78.10;;;;;;4879959;28;95727;-60
2022/05/12 08:46:05;;;;;;;7.78;4.78;;;19.00;78.30;;;;;;4881831;28;95763;-59
2022/05/12 08:48:41;;;;;;;5.40;3.90;;;19.00;78.30;;;;;;4884543;28;96435;-59
2022/05/12 08:51:16;;;;;;;7.03;4.70;;;19.00;78.30;;;;;;4881329;28;95923;-59
2022/05/12 08:54:04;;;;;;;6.90;4.53;;;19.00;78.40;;;;;;4890891;28;95291;-59
2022/05/12 08:56:40;;;;;;;6.00;3.85;;;19.00;78.40;;;;;;4887303;28;95857;-60
2022/05/12 08:59:13;;;;;;;5.38;3.97;;;19.00;75.30;;;;;;4882241;28;96349;-60
2022/05/12 09:02:01;;;;;;;5.72;4.10;;;19.00;78.50;;;;;;4878224;28;96556;-60
2022/05/12 09:05:00;;;;;;;5.63;4.20;;;18.90;78.50;;;;;;4885070;28;95578;-60
2022/05/12 09:07:54;;;;;;;6.68;4.35;;;18.90;78.50;;;;;;4882446;28;95597;-60
2022/05/12 09:10:51;;;;;;;9.63;4.85;;;18.90;78.50;;;;;;4888660;28;96136;-60
2022/05/12 09:13:29;;;;;;;6.90;4.05;;;18.90;78.50;;;;;;4888480;28;95872;-60
2022/05/12 09:16:10;;;;;;;4.43;3.90;;;18.90;78.50;;;;;;4881084;28;95834;-60
2022/05/12 09:18:42;;;;;;;5.30;3.30;;;18.90;78.50;;;;;;4885852;28;95904;-61
2022/05/12 09:21:18;;;;;;;8.77;4.30;;;18.90;78.60;;;;;;4888538;28;96083;-61
2022/05/12 09:23:49;;;;;;;5.88;4.28;;;18.90;79.00;;;;;;4900546;28;95639;-61
2022/05/12 09:26:46;;;;;;;4.83;3.73;;;18.90;78.70;;;;;;4887253;28;96354;-61
2022/05/12 09:29:25;;;;;;;4.85;3.80;;;18.90;78.80;;;;;;4889634;28;95638;-61
2022/05/12 09:32:03;;;;;;;4.95;4.15;;;18.90;78.90;;;;;;4878246;28;96026;-61
2022/05/12 09:34:39;;;;;;;5.10;3.53;;;18.90;79.10;;;;;;4893180;28;95883;-60
2022/05/12 09:37:19;;;;;;;5.80;3.67;;;18.80;79.10;;;;;;4893156;28;95766;-61
2022/05/12 09:39:53;;;;;;;6.47;3.85;;;18.80;79.10;;;;;;4893808;28;95348;-61
2022/05/12 09:42:29;;;;;;;6.47;3.28;;;18.80;76.90;;;;;;4888001;28;96623;-61
2022/05/12 09:45:08;;;;;;;6.97;4.30;;;18.80;79.10;;;;;;4891505;28;95797;-61
2022/05/12 09:47:39;;;;;;;4.40;3.63;;;18.80;79.10;;;;;;4888556;28;96009;-61
2022/05/12 09:50:20;;;;;;;9.02;4.07;;;18.80;79.10;;;;;;4904017;28;95712;-61
2022/05/12 09:53:02;;;;;;;6.88;4.28;;;18.80;79.10;;;;;;4889608;28;96177;-61
2022/05/12 09:55:39;;;;;;;6.53;3.50;;;18.90;79.20;;;;;;4883763;28;95915;-61
2022/05/12 09:58:17;;;;;;;5.90;4.07;;;18.80;79.20;;;;;;4880045;28;95910;-61
2022/05/12 10:01:22;;;;;;;7.07;4.45;;;18.80;79.30;;;;;;4883444;28;95897;-61
2022/05/12 10:09:56;;;;;;;7.75;4.00;;;18.80;79.40;;;;;;4890735;28;95324;-61
2022/05/12 10:12:37;;;;;;;5.20;3.72;;;18.80;79.30;;;;;;4892567;28;95391;-61
2022/05/12 10:15:23;;;;;;;5.77;4.30;;;18.80;79.30;;;;;;4880866;28;97431;-61
2022/05/12 10:18:16;;;;;;;4.55;3.60;;;18.80;79.30;;;;;;4883359;28;101709;-61
2022/05/12 10:20:50;;;;;;;6.32;3.75;;;18.70;79.30;;;;;;4889152;28;96137;-61
2022/05/12 10:24:01;;;;;;;6.30;4.45;;;18.80;79.30;;;;;;4879701;28;95805;-61
2022/05/12 10:26:56;;;;;;;6.33;3.97;;;18.70;79.30;;;;;;4873473;28;96079;-61
2022/05/12 10:30:06;;;;;;;4.35;3.20;;;18.80;79.40;;;;;;4875767;28;96196;-61
2022/05/12 10:32:46;;;;;;;6.15;3.88;;;18.70;79.40;;;;;;4882723;28;96165;-61
2022/05/12 10:36:08;;;;;;;7.40;4.30;;;18.70;79.40;;;;;;4899833;28;96345;-61
2022/05/12 10:39:10;;;;;;;5.75;3.83;;;18.70;79.50;;;;;;4881469;28;95719;-61
2022/05/12 10:42:00;;;;;;;5.82;3.85;;;18.70;79.50;;;;;;4881475;28;95409;-61
2022/05/12 10:45:07;;;;;;;5.50;3.58;;;18.70;76.40;;;;;;4886357;28;95922;-62
2022/05/12 10:47:47;;;;;;;6.22;3.67;;;18.70;79.50;;;;;;4883165;28;95553;-61
2022/05/12 10:50:19;;;;;;;6.68;3.78;;;18.70;79.70;;;;;;4891407;28;96676;-61
2022/05/12 10:53:04;;;;;;;4.53;3.70;;;18.70;79.70;;;;;;4886961;28;95683;-61
2022/05/12 10:55:56;;;;;;;3.83;3.42;;;18.70;79.70;;;;;;4884595;28;95782;-61
2022/05/12 10:58:46;;;;;;;6.68;4.28;;;18.60;79.60;;;;;;4885430;28;95725;-61
2022/05/12 11:01:27;;;;;;;5.90;4.03;;;18.70;79.70;;;;;;4879060;28;98675;-61
2022/05/12 11:04:05;;;;;;;7.80;3.65;;;18.60;79.70;;;;;;4892214;28;95718;-61
2022/05/12 11:06:44;;;;;;;6.40;3.90;;;18.60;79.70;;;;;;4887661;28;95402;-61
2022/05/12 11:09:23;;;;;;;6.10;4.00;;;18.60;79.80;;;;;;4888047;28;95403;-61
2022/05/12 11:11:58;;;;;;;4.75;3.55;;;18.60;79.90;;;;;;4883008;28;95990;-61
2022/05/12 11:14:44;;;;;;;5.88;3.60;;;18.60;79.80;;;;;;4881575;28;95797;-61
2022/05/12 11:17:40;;;;;;;4.45;3.60;;;18.60;79.90;;;;;;4872838;28;99257;-61
2022/05/12 11:20:34;;;;;;;4.82;3.55;;;18.50;80.00;;;;;;4888947;28;95816;-61
2022/05/12 11:23:17;;;;;;;6.00;4.05;;;18.60;80.00;;;;;;4888941;28;96598;-61
2022/05/12 11:26:07;;;;;;;4.00;3.50;;;18.60;80.00;;;;;;4888029;28;95824;-63
2022/05/12 11:32:29;;;;;;;5.88;3.28;;;18.50;80.10;;;;;;4890443;28;97220;-61
2022/05/12 11:35:10;;;;;;;5.55;3.70;;;18.50;80.00;;;;;;4891214;28;96420;-62
2022/05/12 11:37:49;;;;;;;6.00;3.97;;;18.50;80.10;;;;;;4891237;28;95778;-62
2022/05/12 11:40:44;;;;;;;5.13;3.95;;;18.50;80.10;;;;;;4891404;28;95827;-62
2022/05/12 11:46:54;;;;;;;5.78;4.20;;;18.50;80.20;;;;;;4879733;28;95893;-61
2022/05/12 11:49:49;;;;;;;5.93;3.72;;;18.50;80.30;;;;;;4888466;28;96230;-61
2022/05/12 11:52:30;;;;;;;12.07;4.13;;;18.50;80.30;;;;;;4884291;28;95829;-61
2022/05/12 11:55:25;;;;;;;6.23;3.83;;;18.50;80.40;;;;;;4879664;28;96430;-61
2022/05/12 11:58:15;;;;;;;5.47;4.15;;;18.50;80.50;;;;;;4876324;28;95889;-62
2022/05/12 12:00:54;;;;;;;5.07;3.50;;;18.50;80.60;;;;;;4879058;28;95749;-62
2022/05/12 12:03:26;;;;;;;8.07;4.15;;;18.50;80.60;;;;;;4880498;28;95823;-61
2022/05/12 12:06:04;;;;;;;6.70;4.25;;;18.50;80.60;;;;;;4881893;28;95720;-62
2022/05/12 12:08:46;;;;;;;8.50;4.30;;;18.40;80.50;;;;;;4887160;28;95886;-61
2022/05/12 12:11:22;;;;;;;5.20;4.07;;;18.50;80.50;;;;;;4891087;28;95311;-62
2022/05/12 12:14:00;;;;;;;5.47;3.72;;;18.50;80.60;;;;;;4891570;28;95831;-62
2022/05/12 12:17:01;;;;;;;9.52;3.80;;;18.40;80.60;;;;;;4880209;28;98317;-62
2022/05/12 12:19:49;;;;;;;5.15;4.15;;;18.40;80.60;;;;;;4894830;28;95979;-62
2022/05/12 12:22:37;;;;;;;6.75;3.78;;;18.40;80.60;;;;;;4887694;28;95462;-62
2022/05/12 12:25:21;;;;;;;6.72;4.47;;;18.50;80.60;;;;;;4893224;28;95338;-61
2022/05/12 12:27:57;;;;;;;6.38;4.82;;;18.50;77.40;;;;;;4883224;28;96004;-61
2022/05/12 12:30:34;;;;;;;7.18;4.20;;;18.40;80.20;;;;;;4883866;28;96043;-62
2022/05/12 12:33:16;;;;;;;4.63;3.92;;;18.50;80.50;;;;;;4887930;28;97236;-62
2022/05/12 12:36:12;;;;;;;6.55;4.18;;;18.40;80.30;;;;;;4888838;28;96158;-62
2022/05/12 12:38:49;;;;;;;6.32;4.95;;;18.50;80.50;;;;;;4882733;28;95334;-62
2022/05/12 12:41:29;;;;;;;4.65;4.22;;;18.40;80.20;;;;;;4888113;28;95938;-62
2022/05/12 12:44:19;;;;;;;6.63;4.80;;;18.50;80.40;;;;;;4890001;28;95323;-61
2022/05/12 12:47:02;;;;;;;4.53;4.00;;;18.50;80.30;;;;;;4886638;28;95856;-62
2022/05/12 12:49:47;;;;;;;5.53;4.18;;;18.50;80.30;;;;;;4893771;28;95357;-62
2022/05/12 12:52:19;;;;;;;7.00;4.32;;;18.50;80.30;;;;;;4899277;28;95897;-62
2022/05/12 12:57:53;;;;;;;4.70;3.88;;;18.50;80.30;;;;;;4893112;28;96412;-62
2022/05/12 13:00:33;;;;;;;5.18;3.80;;;18.50;80.30;;;;;;4889070;28;96454;-62
2022/05/12 13:03:11;;;;;;;5.32;3.72;;;18.50;80.30;;;;;;4893216;28;102210;-61
2022/05/12 13:05:42;;;;;;;6.28;4.18;;;18.50;80.30;;;;;;4893256;28;95313;-62
2022/05/12 13:08:42;;;;;;;4.53;3.60;;;18.50;80.30;;;;;;4894440;28;96501;-61
2022/05/12 13:11:20;;;;;;;8.10;3.78;;;18.50;80.30;;;;;;4889965;28;95400;-62
2022/05/12 13:13:54;;;;;;;4.72;4.20;;;18.40;80.20;;;;;;4893618;28;95873;-62
2022/05/12 13:16:33;;;;;;;4.28;3.88;;;18.40;80.20;;;;;;4875942;28;96116;-62
2022/05/12 13:19:05;;;;;;;7.68;4.57;;;18.40;80.30;;;;;;4893433;28;95478;-62
2022/05/12 13:21:43;;;;;;;4.40;3.60;;;18.50;80.30;;;;;;4893330;28;95799;-62
2022/05/12 13:24:27;;;;;;;4.65;3.75;;;18.50;80.30;;;;;;4892122;28;95699;-61
2022/05/12 13:27:01;;;;;;;5.55;3.65;;;18.50;80.30;;;;;;4892910;28;95944;-62
2022/05/12 13:29:40;;;;;;;6.10;4.03;;;18.50;80.90;;;;;;4885025;28;95861;-62
2022/05/12 13:32:32;;;;;;;5.53;4.25;;;18.40;80.20;;;;;;4897093;28;95745;-62
2022/05/12 13:35:19;;;;;;;5.32;3.63;;;18.40;80.20;;;;;;4885338;28;95932;-62
2022/05/12 13:38:00;;;;;;;5.00;3.50;;;18.40;80.20;;;;;;4892507;28;95972;-62
2022/05/12 13:40:41;;;;;;;5.60;3.92;;;18.40;80.20;;;;;;4892746;28;95826;-62
2022/05/12 13:43:42;;;;;;;3.95;3.55;;;18.40;80.20;;;;;;4892672;28;95833;-62
2022/05/12 13:46:18;;;;;;;5.27;4.03;;;18.40;80.30;;;;;;4893409;28;96429;-61
2022/05/12 13:49:09;;;;;;;4.05;3.65;;;18.40;80.20;;;;;;4875456;28;95955;-64
2022/05/12 13:51:50;;;;;;;5.88;4.28;;;18.40;80.20;;;;;;4900278;28;95974;-62
2022/05/12 13:55:02;;;;;;;7.40;4.30;;;18.40;80.20;;;;;;4893438;28;98282;-62
2022/05/12 13:57:39;;;;;;;7.13;4.30;;;18.40;80.20;;;;;;4893897;28;95915;-61
2022/05/12 14:00:12;;;;;;;5.75;3.58;;;18.40;80.30;;;;;;4892524;28;95898;-61
2022/05/12 14:02:50;;;;;;;4.15;3.75;;;18.40;80.20;;;;;;4887635;28;95382;-62
2022/05/12 14:05:30;;;;;;;4.97;4.47;;;18.30;80.20;;;;;;4894347;28;95725;-62